sensor_id;sensor_type;location;lat;lon;timestamp;pressure;altitude;pressure_sealevel;temperature;humidity
13478;BME280;12598;62.382;17.344;2023-02-21T00:00:36;99142.28;;;16.84;24.79
13478;BME280;12598;62.382;17.344;2023-02-21T00:01:57;99128.66;;;16.79;25.14
13478;BME280;12598;62.382;17.344;2023-02-21T00:03:18;99133.63;;;16.82;24.93
13478;BME280;12598;62.382;17.344;2023-02-21T00:04:38;99130.31;;;16.80;25.29
13478;BME280;12598;62.382;17.344;2023-02-21T00:05:58;99136.31;;;16.82;25.03
13478;BME280;12598;62.382;17.344;2023-02-21T00:07:19;99127.00;;;16.78;24.99
13478;BME280;12598;62.382;17.344;2023-02-21T00:08:39;99135.66;;;16.80;24.52
13478;BME280;12598;62.382;17.344;2023-02-21T00:09:59;99149.00;;;16.80;25.00
13478;BME280;12598;62.382;17.344;2023-02-21T00:11:20;99149.00;;;16.80;24.99
13478;BME280;12598;62.382;17.344;2023-02-21T00:12:41;99150.88;;;16.80;25.23
13478;BME280;12598;62.382;17.344;2023-02-21T00:14:01;99159.69;;;16.80;25.22
13478;BME280;12598;62.382;17.344;2023-02-21T00:15:21;99154.69;;;16.77;24.91
13478;BME280;12598;62.382;17.344;2023-02-21T00:16:42;99165.19;;;16.79;24.98
13478;BME280;12598;62.382;17.344;2023-02-21T00:18:02;99159.03;;;16.78;25.06
13478;BME280;12598;62.382;17.344;2023-02-21T00:19:22;99161.22;;;16.75;25.24
13478;BME280;12598;62.382;17.344;2023-02-21T00:20:43;99169.69;;;16.78;25.17
13478;BME280;12598;62.382;17.344;2023-02-21T00:22:03;99164.59;;;16.69;25.12
13478;BME280;12598;62.382;17.344;2023-02-21T00:23:23;99179.72;;;16.76;25.03
13478;BME280;12598;62.382;17.344;2023-02-21T00:24:44;99174.44;;;16.68;24.83
13478;BME280;12598;62.382;17.344;2023-02-21T00:26:04;99187.75;;;16.76;25.25
13478;BME280;12598;62.382;17.344;2023-02-21T00:27:24;99197.56;;;16.76;25.22
13478;BME280;12598;62.382;17.344;2023-02-21T00:28:45;99180.50;;;16.62;24.98
13478;BME280;12598;62.382;17.344;2023-02-21T00:30:06;99202.09;;;16.75;24.94
13478;BME280;12598;62.382;17.344;2023-02-21T00:31:26;99202.09;;;16.75;25.00
13478;BME280;12598;62.382;17.344;2023-02-21T00:32:47;99207.44;;;16.75;25.01
13478;BME280;12598;62.382;17.344;2023-02-21T00:34:07;99206.59;;;16.75;24.99
13478;BME280;12598;62.382;17.344;2023-02-21T00:35:28;99207.44;;;16.75;25.00
13478;BME280;12598;62.382;17.344;2023-02-21T00:36:48;99211.91;;;16.75;25.38
13478;BME280;12598;62.382;17.344;2023-02-21T00:38:09;99208.59;;;16.73;25.08
13478;BME280;12598;62.382;17.344;2023-02-21T00:39:30;99216.59;;;16.73;25.47
13478;BME280;12598;62.382;17.344;2023-02-21T00:40:51;99216.59;;;16.73;25.32
13478;BME280;12598;62.382;17.344;2023-02-21T00:42:11;99218.44;;;16.72;25.50
13478;BME280;12598;62.382;17.344;2023-02-21T00:43:33;99224.16;;;16.69;25.26
13478;BME280;12598;62.382;17.344;2023-02-21T00:44:54;99218.50;;;16.64;25.13
13478;BME280;12598;62.382;17.344;2023-02-21T00:46:15;99217.00;;;16.62;25.03
13478;BME280;12598;62.382;17.344;2023-02-21T00:47:36;99236.47;;;16.70;25.29
13478;BME280;12598;62.382;17.344;2023-02-21T00:48:56;99234.81;;;16.69;25.23
13478;BME280;12598;62.382;17.344;2023-02-21T00:50:17;99240.97;;;16.70;25.00
13478;BME280;12598;62.382;17.344;2023-02-21T00:51:38;99241.81;;;16.70;25.12
13478;BME280;12598;62.382;17.344;2023-02-21T00:52:58;99247.31;;;16.69;25.34
13478;BME280;12598;62.382;17.344;2023-02-21T00:54:18;99247.50;;;16.67;25.12
13478;BME280;12598;62.382;17.344;2023-02-21T00:55:39;99259.00;;;16.68;25.18
13478;BME280;12598;62.382;17.344;2023-02-21T00:56:59;99244.88;;;16.59;25.66
13478;BME280;12598;62.382;17.344;2023-02-21T00:58:21;99253.06;;;16.58;25.16
13478;BME280;12598;62.382;17.344;2023-02-21T00:59:41;99277.22;;;16.64;25.12
13478;BME280;12598;62.382;17.344;2023-02-21T01:01:01;99267.72;;;16.62;25.33
13478;BME280;12598;62.382;17.344;2023-02-21T01:02:22;99281.91;;;16.62;25.31
13478;BME280;12598;62.382;17.344;2023-02-21T01:03:42;99276.91;;;16.59;25.19
13478;BME280;12598;62.382;17.344;2023-02-21T01:05:03;99292.38;;;16.64;25.12
13478;BME280;12598;62.382;17.344;2023-02-21T01:06:24;99294.88;;;16.65;25.34
13478;BME280;12598;62.382;17.344;2023-02-21T01:07:44;99297.56;;;16.65;25.40
13478;BME280;12598;62.382;17.344;2023-02-21T01:09:04;99304.72;;;16.65;25.20
13478;BME280;12598;62.382;17.344;2023-02-21T01:10:26;99317.25;;;16.64;25.17
13478;BME280;12598;62.382;17.344;2023-02-21T01:11:46;99313.72;;;16.64;25.17
13478;BME280;12598;62.382;17.344;2023-02-21T01:13:07;99313.91;;;16.62;25.40
13478;BME280;12598;62.382;17.344;2023-02-21T01:14:27;99320.06;;;16.63;25.08
13478;BME280;12598;62.382;17.344;2023-02-21T01:15:48;99322.94;;;16.61;25.22
13478;BME280;12598;62.382;17.344;2023-02-21T01:17:08;99312.91;;;16.55;25.33
13478;BME280;12598;62.382;17.344;2023-02-21T01:18:28;99328.25;;;16.61;25.35
13478;BME280;12598;62.382;17.344;2023-02-21T01:19:49;99319.59;;;16.51;25.18
13478;BME280;12598;62.382;17.344;2023-02-21T01:21:13;99336.41;;;16.60;25.38
13478;BME280;12598;62.382;17.344;2023-02-21T01:22:33;99345.28;;;16.60;25.42
13478;BME280;12598;62.382;17.344;2023-02-21T01:23:54;99339.94;;;16.52;25.24
13478;BME280;12598;62.382;17.344;2023-02-21T01:25:14;99356.94;;;16.59;25.53
13478;BME280;12598;62.382;17.344;2023-02-21T01:26:35;99370.44;;;16.58;25.20
13478;BME280;12598;62.382;17.344;2023-02-21T01:27:57;99361.28;;;16.52;25.42
13478;BME280;12598;62.382;17.344;2023-02-21T01:29:17;99375.13;;;16.56;25.55
13478;BME280;12598;62.382;17.344;2023-02-21T01:30:37;99380.28;;;16.57;25.49
13478;BME280;12598;62.382;17.344;2023-02-21T01:31:58;99384.78;;;16.57;25.35
13478;BME280;12598;62.382;17.344;2023-02-21T01:33:18;99393.63;;;16.57;25.16
13478;BME280;12598;62.382;17.344;2023-02-21T01:34:39;99394.63;;;16.56;25.13
13478;BME280;12598;62.382;17.344;2023-02-21T01:35:59;99394.97;;;16.53;25.27
13478;BME280;12598;62.382;17.344;2023-02-21T01:37:21;99405.28;;;16.56;25.45
13478;BME280;12598;62.382;17.344;2023-02-21T01:38:42;99410.63;;;16.56;25.49
13478;BME280;12598;62.382;17.344;2023-02-21T01:40:04;99409.31;;;16.52;25.10
13478;BME280;12598;62.382;17.344;2023-02-21T01:41:24;99415.97;;;16.56;25.18
13478;BME280;12598;62.382;17.344;2023-02-21T01:42:45;99419.63;;;16.55;25.27
13478;BME280;12598;62.382;17.344;2023-02-21T01:45:48;99418.31;;;16.51;25.33
13478;BME280;12598;62.382;17.344;2023-02-21T01:47:11;99436.16;;;16.59;25.32
13478;BME280;12598;62.382;17.344;2023-02-21T01:48:32;99427.97;;;16.52;25.59
13478;BME280;12598;62.382;17.344;2023-02-21T01:49:55;99392.16;;;16.31;25.44
13478;BME280;12598;62.382;17.344;2023-02-21T01:51:17;99444.66;;;16.54;25.27
13478;BME280;12598;62.382;17.344;2023-02-21T01:52:38;99437.19;;;16.50;25.48
13478;BME280;12598;62.382;17.344;2023-02-21T01:53:58;99457.84;;;16.56;25.42
13478;BME280;12598;62.382;17.344;2023-02-21T01:55:19;99463.19;;;16.56;25.27
13478;BME280;12598;62.382;17.344;2023-02-21T01:56:40;99460.66;;;16.54;25.45
13478;BME280;12598;62.382;17.344;2023-02-21T01:58:01;99479.19;;;16.56;25.38
13478;BME280;12598;62.382;17.344;2023-02-21T01:59:21;99455.03;;;16.41;25.39
13478;BME280;12598;62.382;17.344;2023-02-21T02:00:43;99472.53;;;16.44;25.26
13478;BME280;12598;62.382;17.344;2023-02-21T02:02:25;99501.53;;;16.55;25.48
13478;BME280;12598;62.382;17.344;2023-02-21T02:03:47;99499.53;;;16.57;25.18
13478;BME280;12598;62.382;17.344;2023-02-21T02:05:08;99499.69;;;16.55;25.58
13478;BME280;12598;62.382;17.344;2023-02-21T02:06:30;99505.19;;;16.54;25.54
13478;BME280;12598;62.382;17.344;2023-02-21T02:07:51;99515.22;;;16.52;25.49
13478;BME280;12598;62.382;17.344;2023-02-21T02:09:20;99518.53;;;16.54;25.37
13478;BME280;12598;62.382;17.344;2023-02-21T02:10:41;99515.56;;;16.49;25.34
13478;BME280;12598;62.382;17.344;2023-02-21T02:12:19;99534.56;;;16.54;25.36
13478;BME280;12598;62.382;17.344;2023-02-21T02:14:00;99542.75;;;16.60;25.52
13478;BME280;12598;62.382;17.344;2023-02-21T02:19:28;99561.06;;;16.55;25.48
13478;BME280;12598;62.382;17.344;2023-02-21T02:29:24;99606.41;;;16.55;25.37
13478;BME280;12598;62.382;17.344;2023-02-21T02:35:34;99635.59;;;16.49;25.40
13478;BME280;12598;62.382;17.344;2023-02-21T02:36:51;99637.28;;;16.50;25.29
13478;BME280;12598;62.382;17.344;2023-02-21T02:40:22;99651.28;;;16.44;25.31
13478;BME280;12598;62.382;17.344;2023-02-21T02:41:54;99659.94;;;16.46;25.29
13478;BME280;12598;62.382;17.344;2023-02-21T02:43:15;99664.97;;;16.49;25.27
13478;BME280;12598;62.382;17.344;2023-02-21T02:44:31;99667.44;;;16.50;25.30
13478;BME280;12598;62.382;17.344;2023-02-21T02:46:10;99675.97;;;16.54;25.48
13478;BME280;12598;62.382;17.344;2023-02-21T02:47:23;99690.13;;;16.54;25.31
13478;BME280;12598;62.382;17.344;2023-02-21T02:48:30;99692.47;;;16.49;25.38
13478;BME280;12598;62.382;17.344;2023-02-21T02:49:37;99703.47;;;16.46;25.29
13478;BME280;12598;62.382;17.344;2023-02-21T02:50:45;99690.09;;;16.38;25.33
13478;BME280;12598;62.382;17.344;2023-02-21T02:51:49;99704.63;;;16.44;25.61
13478;BME280;12598;62.382;17.344;2023-02-21T02:52:57;99714.63;;;16.42;25.37
13478;BME280;12598;62.382;17.344;2023-02-21T02:54:03;99669.34;;;16.17;25.23
13478;BME280;12598;62.382;17.344;2023-02-21T02:55:25;99717.78;;;16.45;25.62
13478;BME280;12598;62.382;17.344;2023-02-21T02:56:31;99725.66;;;16.47;25.40
13478;BME280;12598;62.382;17.344;2023-02-21T02:57:34;99729.66;;;16.43;25.24
13478;BME280;12598;62.382;17.344;2023-02-21T02:58:46;99733.13;;;16.43;25.46
13478;BME280;12598;62.382;17.344;2023-02-21T02:59:50;99733.13;;;16.43;25.59
13478;BME280;12598;62.382;17.344;2023-02-21T03:08:52;99756.50;;;16.49;25.22
13478;BME280;12598;62.382;17.344;2023-02-21T03:11:21;99780.34;;;16.51;25.21
13478;BME280;12598;62.382;17.344;2023-02-21T03:13:52;99773.31;;;16.42;25.40
13478;BME280;12598;62.382;17.344;2023-02-21T03:15:10;99784.16;;;16.48;25.27
13478;BME280;12598;62.382;17.344;2023-02-21T03:16:34;99792.03;;;16.50;25.16
13478;BME280;12598;62.382;17.344;2023-02-21T03:17:45;99801.19;;;16.47;25.24
13478;BME280;12598;62.382;17.344;2023-02-21T03:19:19;99809.03;;;16.49;25.43
13478;BME280;12598;62.382;17.344;2023-02-21T03:20:24;99811.84;;;16.47;25.19
13478;BME280;12598;62.382;17.344;2023-02-21T03:22:15;99812.34;;;16.43;25.46
13478;BME280;12598;62.382;17.344;2023-02-21T03:22:53;99817.34;;;16.46;25.53
13478;BME280;12598;62.382;17.344;2023-02-21T03:23:59;99822.16;;;16.42;25.68
13478;BME280;12598;62.382;17.344;2023-02-21T03:25:03;99833.00;;;16.41;25.43
13478;BME280;12598;62.382;17.344;2023-02-21T03:26:07;99832.34;;;16.39;25.54
13478;BME280;12598;62.382;17.344;2023-02-21T03:27:17;99829.13;;;16.35;25.35
13478;BME280;12598;62.382;17.344;2023-02-21T03:28:38;99840.84;;;16.42;25.47
13478;BME280;12598;62.382;17.344;2023-02-21T03:29:42;99852.50;;;16.41;25.42
13478;BME280;12598;62.382;17.344;2023-02-21T03:30:45;99850.16;;;16.38;25.42
13478;BME280;12598;62.382;17.344;2023-02-21T03:31:55;99851.16;;;16.37;25.52
13478;BME280;12598;62.382;17.344;2023-02-21T03:32:58;99866.16;;;16.38;25.34
13478;BME280;12598;62.382;17.344;2023-02-21T03:34:02;99854.75;;;16.28;25.47
13478;BME280;12598;62.382;17.344;2023-02-21T03:35:05;99857.25;;;16.30;25.29
13478;BME280;12598;62.382;17.344;2023-02-21T03:36:09;99869.44;;;16.32;25.41
13478;BME280;12598;62.382;17.344;2023-02-21T03:38:36;99878.38;;;16.41;25.15
13478;BME280;12598;62.382;17.344;2023-02-21T03:39:38;99880.66;;;16.36;25.30
13478;BME280;12598;62.382;17.344;2023-02-21T03:40:40;99888.66;;;16.36;25.22
13478;BME280;12598;62.382;17.344;2023-02-21T03:41:42;99893.16;;;16.35;25.35
13478;BME280;12598;62.382;17.344;2023-02-21T03:42:44;99892.78;;;16.30;25.22
13478;BME280;12598;62.382;17.344;2023-02-21T03:43:48;99904.81;;;16.34;25.36
13478;BME280;12598;62.382;17.344;2023-02-21T03:44:50;99904.81;;;16.34;25.10
13478;BME280;12598;62.382;17.344;2023-02-21T03:45:52;99906.78;;;16.32;24.92
13478;BME280;12598;62.382;17.344;2023-02-21T03:46:54;99911.25;;;16.32;25.41
13478;BME280;12598;62.382;17.344;2023-02-21T03:47:56;99919.28;;;16.32;25.28
13478;BME280;12598;62.382;17.344;2023-02-21T03:48:59;99904.06;;;16.25;25.36
13478;BME280;12598;62.382;17.344;2023-02-21T03:50:03;99922.09;;;16.30;25.37
13478;BME280;12598;62.382;17.344;2023-02-21T03:51:08;99930.78;;;16.32;25.15
13478;BME280;12598;62.382;17.344;2023-02-21T03:52:11;99916.41;;;16.26;25.42
13478;BME280;12598;62.382;17.344;2023-02-21T03:53:13;99933.59;;;16.31;25.41
13478;BME280;12598;62.382;17.344;2023-02-21T03:54:17;99939.78;;;16.31;25.09
13478;BME280;12598;62.382;17.344;2023-02-21T03:55:23;99930.56;;;16.26;25.24
13478;BME280;12598;62.382;17.344;2023-02-21T03:56:25;99928.38;;;16.22;25.24
13478;BME280;12598;62.382;17.344;2023-02-21T03:57:51;99962.22;;;16.38;25.11
13478;BME280;12598;62.382;17.344;2023-02-21T03:58:53;99959.69;;;16.37;24.88
13478;BME280;12598;62.382;17.344;2023-02-21T03:59:55;99969.53;;;16.36;25.22
13478;BME280;12598;62.382;17.344;2023-02-21T04:00:57;99960.84;;;16.34;25.04
13478;BME280;12598;62.382;17.344;2023-02-21T04:01:59;99966.47;;;16.31;25.32
13478;BME280;12598;62.382;17.344;2023-02-21T04:03:04;99981.34;;;16.34;24.92
13478;BME280;12598;62.382;17.344;2023-02-21T04:04:12;99977.69;;;16.35;25.13
13478;BME280;12598;62.382;17.344;2023-02-21T04:05:15;99980.50;;;16.33;25.14
13478;BME280;12598;62.382;17.344;2023-02-21T04:06:17;99991.28;;;16.32;25.02
13478;BME280;12598;62.382;17.344;2023-02-21T04:07:20;99983.59;;;16.29;25.02
13478;BME280;12598;62.382;17.344;2023-02-21T04:08:23;100001.16;;;16.31;24.84
13478;BME280;12598;62.382;17.344;2023-02-21T04:09:24;99993.13;;;16.31;25.35
13478;BME280;12598;62.382;17.344;2023-02-21T04:10:27;100008.28;;;16.31;25.21
13478;BME280;12598;62.382;17.344;2023-02-21T04:11:30;100004.81;;;16.30;24.89
13478;BME280;12598;62.382;17.344;2023-02-21T04:12:32;99998.41;;;16.24;25.04
13478;BME280;12598;62.382;17.344;2023-02-21T04:13:34;100012.81;;;16.30;25.06
13478;BME280;12598;62.382;17.344;2023-02-21T04:14:36;100013.94;;;16.28;24.83
13478;BME280;12598;62.382;17.344;2023-02-21T04:15:38;100016.59;;;16.28;25.13
13478;BME280;12598;62.382;17.344;2023-02-21T04:16:40;100022.78;;;16.28;25.09
13478;BME280;12598;62.382;17.344;2023-02-21T04:17:43;100032.47;;;16.29;24.85
13478;BME280;12598;62.382;17.344;2023-02-21T04:18:44;100025.47;;;16.28;25.10
13478;BME280;12598;62.382;17.344;2023-02-21T04:19:48;100021.81;;;16.29;24.98
13478;BME280;12598;62.382;17.344;2023-02-21T04:20:51;100036.94;;;16.29;24.61
13478;BME280;12598;62.382;17.344;2023-02-21T04:21:53;100026.91;;;16.23;25.09
13478;BME280;12598;62.382;17.344;2023-02-21T04:22:55;100043.28;;;16.28;25.11
13478;BME280;12598;62.382;17.344;2023-02-21T04:24:04;100051.81;;;16.31;24.90
13478;BME280;12598;62.382;17.344;2023-02-21T04:25:07;100051.13;;;16.29;25.15
13478;BME280;12598;62.382;17.344;2023-02-21T04:26:18;100052.66;;;16.32;25.10
13478;BME280;12598;62.382;17.344;2023-02-21T04:27:23;100061.50;;;16.32;25.08
13478;BME280;12598;62.382;17.344;2023-02-21T04:28:29;100058.16;;;16.30;24.81
13478;BME280;12598;62.382;17.344;2023-02-21T04:29:30;100078.50;;;16.31;24.58
13478;BME280;12598;62.382;17.344;2023-02-21T04:30:32;100063.94;;;16.26;25.03
13478;BME280;12598;62.382;17.344;2023-02-21T04:31:34;100074.28;;;16.29;24.81
13478;BME280;12598;62.382;17.344;2023-02-21T04:32:41;100087.50;;;16.30;24.97
13478;BME280;12598;62.382;17.344;2023-02-21T04:33:47;100087.50;;;16.30;24.63
13478;BME280;12598;62.382;17.344;2023-02-21T04:34:56;100085.66;;;16.31;24.51
13478;BME280;12598;62.382;17.344;2023-02-21T04:35:58;100100.16;;;16.28;24.74
13478;BME280;12598;62.382;17.344;2023-02-21T04:37:12;100104.31;;;16.31;24.78
13478;BME280;12598;62.382;17.344;2023-02-21T04:38:19;100101.81;;;16.29;24.61
13478;BME280;12598;62.382;17.344;2023-02-21T04:39:21;100118.81;;;16.28;24.72
13478;BME280;12598;62.382;17.344;2023-02-21T04:40:24;100122.47;;;16.27;24.68
13478;BME280;12598;62.382;17.344;2023-02-21T04:41:26;100128.81;;;16.27;24.74
13478;BME280;12598;62.382;17.344;2023-02-21T04:42:27;100117.28;;;16.26;24.56
13478;BME280;12598;62.382;17.344;2023-02-21T04:43:29;100134.28;;;16.25;24.75
13478;BME280;12598;62.382;17.344;2023-02-21T04:44:31;100130.78;;;16.25;24.74
13478;BME280;12598;62.382;17.344;2023-02-21T04:45:33;100144.13;;;16.25;24.67
13478;BME280;12598;62.382;17.344;2023-02-21T04:46:35;100141.59;;;16.23;24.40
13478;BME280;12598;62.382;17.344;2023-02-21T04:47:37;100143.44;;;16.23;24.68
13478;BME280;12598;62.382;17.344;2023-02-21T04:48:39;100143.44;;;16.23;24.77
13478;BME280;12598;62.382;17.344;2023-02-21T04:49:41;100144.44;;;16.22;24.67
13478;BME280;12598;62.382;17.344;2023-02-21T04:50:42;100141.50;;;16.15;24.59
13478;BME280;12598;62.382;17.344;2023-02-21T04:51:44;100154.09;;;16.23;24.65
13478;BME280;12598;62.382;17.344;2023-02-21T04:52:46;100135.50;;;16.13;24.44
13478;BME280;12598;62.382;17.344;2023-02-21T04:53:48;100157.75;;;16.22;24.70
13478;BME280;12598;62.382;17.344;2023-02-21T04:54:51;100153.00;;;16.16;24.56
13478;BME280;12598;62.382;17.344;2023-02-21T04:55:53;100167.56;;;16.21;24.55
13478;BME280;12598;62.382;17.344;2023-02-21T04:56:54;100171.91;;;16.22;24.38
13478;BME280;12598;62.382;17.344;2023-02-21T04:57:56;100174.59;;;16.22;24.67
13478;BME280;12598;62.382;17.344;2023-02-21T04:58:58;100179.09;;;16.22;24.67
13478;BME280;12598;62.382;17.344;2023-02-21T05:00:00;100176.44;;;16.22;24.44
13478;BME280;12598;62.382;17.344;2023-02-21T05:01:02;100184.44;;;16.22;24.71
13478;BME280;12598;62.382;17.344;2023-02-21T05:02:04;100185.56;;;16.19;24.46
13478;BME280;12598;62.382;17.344;2023-02-21T05:03:06;100171.28;;;16.11;24.48
13478;BME280;12598;62.382;17.344;2023-02-21T05:04:08;100194.13;;;16.23;24.69
13478;BME280;12598;62.382;17.344;2023-02-21T05:05:11;100194.25;;;16.21;24.40
13478;BME280;12598;62.382;17.344;2023-02-21T05:06:21;100197.78;;;16.22;24.50
13478;BME280;12598;62.382;17.344;2023-02-21T05:07:23;100193.13;;;16.24;24.42
13478;BME280;12598;62.382;17.344;2023-02-21T05:08:25;100200.28;;;16.23;24.45
13478;BME280;12598;62.382;17.344;2023-02-21T05:09:29;100194.13;;;16.23;24.40
13478;BME280;12598;62.382;17.344;2023-02-21T05:10:31;100202.94;;;16.23;24.38
13478;BME280;12598;62.382;17.344;2023-02-21T05:11:45;100191.75;;;16.20;24.68
13478;BME280;12598;62.382;17.344;2023-02-21T05:12:47;100210.81;;;16.25;24.59
13478;BME280;12598;62.382;17.344;2023-02-21T05:13:49;100210.13;;;16.23;24.28
13478;BME280;12598;62.382;17.344;2023-02-21T05:14:52;100200.06;;;16.17;24.56
13478;BME280;12598;62.382;17.344;2023-02-21T05:15:53;100219.09;;;16.22;24.34
13478;BME280;12598;62.382;17.344;2023-02-21T05:16:55;100227.13;;;16.22;24.67
13478;BME280;12598;62.382;17.344;2023-02-21T05:17:57;100226.25;;;16.21;24.31
13478;BME280;12598;62.382;17.344;2023-02-21T05:18:59;100233.44;;;16.21;24.62
13478;BME280;12598;62.382;17.344;2023-02-21T05:20:04;100230.75;;;16.21;24.55
13478;BME280;12598;62.382;17.344;2023-02-21T05:21:13;100233.88;;;16.16;24.26
13478;BME280;12598;62.382;17.344;2023-02-21T05:22:15;100242.13;;;16.23;24.73
13478;BME280;12598;62.382;17.344;2023-02-21T05:23:21;100245.63;;;16.23;24.48
13478;BME280;12598;62.382;17.344;2023-02-21T05:24:49;100242.13;;;16.23;24.37
13478;BME280;12598;62.382;17.344;2023-02-21T05:25:51;100231.34;;;16.15;24.47
13478;BME280;12598;62.382;17.344;2023-02-21T05:26:53;100249.97;;;16.24;24.69
13478;BME280;12598;62.382;17.344;2023-02-21T05:27:55;100252.78;;;16.23;24.39
13478;BME280;12598;62.382;17.344;2023-02-21T05:28:57;100253.22;;;16.18;24.56
13478;BME280;12598;62.382;17.344;2023-02-21T05:29:59;100262.59;;;16.22;24.59
13478;BME280;12598;62.382;17.344;2023-02-21T05:31:01;100255.59;;;16.21;24.30
13478;BME280;12598;62.382;17.344;2023-02-21T05:32:03;100266.25;;;16.21;24.54
13478;BME280;12598;62.382;17.344;2023-02-21T05:33:05;100258.00;;;16.15;24.58
13478;BME280;12598;62.382;17.344;2023-02-21T05:34:07;100276.13;;;16.21;24.42
13478;BME280;12598;62.382;17.344;2023-02-21T05:35:09;100268.25;;;16.19;24.55
13478;BME280;12598;62.382;17.344;2023-02-21T05:36:11;100284.13;;;16.21;24.31
13478;BME280;12598;62.382;17.344;2023-02-21T05:37:14;100284.13;;;16.21;24.36
13478;BME280;12598;62.382;17.344;2023-02-21T05:38:17;100281.56;;;16.19;24.39
13478;BME280;12598;62.382;17.344;2023-02-21T05:39:19;100278.66;;;16.13;24.33
13478;BME280;12598;62.382;17.344;2023-02-21T05:40:21;100290.44;;;16.20;24.63
13478;BME280;12598;62.382;17.344;2023-02-21T05:41:23;100287.75;;;16.20;24.22
13478;BME280;12598;62.382;17.344;2023-02-21T05:42:25;100292.13;;;16.21;24.17
13478;BME280;12598;62.382;17.344;2023-02-21T05:43:27;100293.09;;;16.20;24.42
13478;BME280;12598;62.382;17.344;2023-02-21T05:44:34;100301.78;;;16.22;24.33
13478;BME280;12598;62.382;17.344;2023-02-21T05:45:36;100310.78;;;16.21;24.12
13478;BME280;12598;62.382;17.344;2023-02-21T05:46:38;100300.41;;;16.18;24.21
13478;BME280;12598;62.382;17.344;2023-02-21T05:47:40;100299.84;;;16.14;24.49
13478;BME280;12598;62.382;17.344;2023-02-21T05:48:42;100310.78;;;16.21;24.70
13478;BME280;12598;62.382;17.344;2023-02-21T05:49:44;100306.56;;;16.18;24.31
13478;BME280;12598;62.382;17.344;2023-02-21T05:50:45;100313.75;;;16.18;24.22
13478;BME280;12598;62.382;17.344;2023-02-21T05:51:47;100307.16;;;16.12;24.49
13478;BME280;12598;62.382;17.344;2023-02-21T05:52:49;100316.41;;;16.18;24.22
13478;BME280;12598;62.382;17.344;2023-02-21T05:53:51;100325.41;;;16.17;24.63
13478;BME280;12598;62.382;17.344;2023-02-21T05:54:53;100323.69;;;16.16;24.47
13478;BME280;12598;62.382;17.344;2023-02-21T05:55:55;100333.41;;;16.17;24.19
13478;BME280;12598;62.382;17.344;2023-02-21T05:56:58;100330.75;;;16.17;24.21
13478;BME280;12598;62.382;17.344;2023-02-21T05:57:59;100333.41;;;16.17;24.40
13478;BME280;12598;62.382;17.344;2023-02-21T05:59:01;100336.06;;;16.17;24.52
13478;BME280;12598;62.382;17.344;2023-02-21T06:00:03;100335.22;;;16.16;24.35
13478;BME280;12598;62.382;17.344;2023-02-21T06:01:12;100337.75;;;16.18;24.28
13478;BME280;12598;62.382;17.344;2023-02-21T06:02:15;100339.69;;;16.16;24.35
13478;BME280;12598;62.382;17.344;2023-02-21T06:03:17;100346.75;;;16.17;24.11
13478;BME280;12598;62.382;17.344;2023-02-21T06:04:19;100343.34;;;16.15;24.45
13478;BME280;12598;62.382;17.344;2023-02-21T06:05:22;100346.00;;;16.15;24.30
13478;BME280;12598;62.382;17.344;2023-02-21T06:06:24;100359.34;;;16.15;24.28
13478;BME280;12598;62.382;17.344;2023-02-21T06:07:26;100349.53;;;16.15;24.20
13478;BME280;12598;62.382;17.344;2023-02-21T06:08:28;100362.00;;;16.15;24.15
13478;BME280;12598;62.382;17.344;2023-02-21T06:09:29;100363.69;;;16.16;24.32
13478;BME280;12598;62.382;17.344;2023-02-21T06:10:31;100368.91;;;16.17;24.17
13478;BME280;12598;62.382;17.344;2023-02-21T06:11:35;100375.09;;;16.18;24.22
13478;BME280;12598;62.382;17.344;2023-02-21T06:12:41;100362.75;;;16.17;24.08
13478;BME280;12598;62.382;17.344;2023-02-21T06:13:43;100379.97;;;16.22;23.94
13478;BME280;12598;62.382;17.344;2023-02-21T06:14:45;100381.81;;;16.22;24.21
13478;BME280;12598;62.382;17.344;2023-02-21T06:15:46;100391.22;;;16.26;24.11
13478;BME280;12598;62.382;17.344;2023-02-21T06:16:48;100396.38;;;16.27;24.16
13478;BME280;12598;62.382;17.344;2023-02-21T06:17:50;100401.44;;;16.30;24.02
13478;BME280;12598;62.382;17.344;2023-02-21T06:18:54;100410.97;;;16.32;24.13
13478;BME280;12598;62.382;17.344;2023-02-21T06:19:56;100365.97;;;16.11;23.98
13478;BME280;12598;62.382;17.344;2023-02-21T06:20:58;100418.44;;;16.38;23.96
13478;BME280;12598;62.382;17.344;2023-02-21T06:22:00;100419.13;;;16.40;23.83
13478;BME280;12598;62.382;17.344;2023-02-21T06:23:02;100426.84;;;16.43;23.78
13478;BME280;12598;62.382;17.344;2023-02-21T06:24:04;100430.91;;;16.47;23.66
13478;BME280;12598;62.382;17.344;2023-02-21T06:25:06;100421.22;;;16.46;23.59
13478;BME280;12598;62.382;17.344;2023-02-21T06:26:08;100429.31;;;16.54;23.83
13478;BME280;12598;62.382;17.344;2023-02-21T06:27:10;100433.41;;;16.58;23.51
13478;BME280;12598;62.382;17.344;2023-02-21T06:28:12;100432.25;;;16.61;23.50
13478;BME280;12598;62.382;17.344;2023-02-21T06:29:14;100438.28;;;16.63;23.68
13478;BME280;12598;62.382;17.344;2023-02-21T06:30:16;100410.94;;;16.51;23.64
13478;BME280;12598;62.382;17.344;2023-02-21T06:31:19;100442.91;;;16.70;23.47
13478;BME280;12598;62.382;17.344;2023-02-21T06:32:21;100442.31;;;16.76;23.24
13478;BME280;12598;62.382;17.344;2023-02-21T06:33:23;100451.03;;;16.78;23.08
13478;BME280;12598;62.382;17.344;2023-02-21T06:34:26;100451.59;;;16.82;23.06
13478;BME280;12598;62.382;17.344;2023-02-21T06:35:28;100455.78;;;16.84;23.18
13478;BME280;12598;62.382;17.344;2023-02-21T06:36:30;100461.50;;;16.89;22.72
13478;BME280;12598;62.382;17.344;2023-02-21T06:37:32;100471.91;;;16.92;23.30